Kuo Long — VRQF2 — position and weather

sailwx.info

Track history (hours):
 
Tides and Currents Weather Stations Pressure Air Temp Water Temp Dewpoint Dewpoint Depression Visibility Wind Speed Wind Dir Waves Ship Positions

Kuo Long

Last reported at 2018-Feb-15 05:24 UTC. Time now 2018-Feb-20 13:42 UTC.
Position N 22°31' E 119°28'.

Length 170 m; draft 8.4 m.

Type: Ship (hazmat cat A). MMSI: 477884200.

Date/timePositionNaut miles runAvg speedWind from/ knotsBaromVisibWave heightAir tempDewpointWater temp
2018-Feb-15 05:24N 22°31' E 119°28'715.8
2018-Feb-15 04:57N 22°32' E 119°35'715.6
2018-Feb-15 04:30N 22°32' E 119°43'815.1
2018-Feb-15 04:01N 22°32' E 119°51'815.6
2018-Feb-15 03:30N 22°33' E 119°60'816.9
2018-Feb-15 03:00N 22°33' E 120°09'816.6
2018-Feb-15 02:30N 22°33' E 120°18'1 2.9
2018-Feb-15 02:00N 22°34' E 120°19'0 0.0
2018-Feb-15 01:30N 22°34' E 120°19'0 0.0
2018-Feb-15 01:00N 22°34' E 120°19'0 0.0
2018-Feb-15 00:30N 22°34' E 120°19'0 0.0
2018-Feb-15 00:00N 22°34' E 120°19'0 0.0
2018-Feb-14 23:30N 22°34' E 120°19'0 0.0
2018-Feb-14 22:57N 22°34' E 120°19'0 0.0
2018-Feb-14 22:30N 22°34' E 120°19'0 0.0
2018-Feb-14 22:00N 22°34' E 120°19'0 0.0
2018-Feb-14 21:30N 22°34' E 120°19'0 0.0
2018-Feb-14 21:00N 22°34' E 120°19'0 0.0
2018-Feb-14 20:30N 22°34' E 120°19'0 0.1
2018-Feb-14 20:01N 22°34' E 120°19'3 5.1
2018-Feb-14 19:30N 22°33' E 120°17'3 6.2
2018-Feb-14 19:00N 22°32' E 120°13'816.3
2018-Feb-14 18:30N 22°39' E 120°08'917.7
2018-Feb-14 18:00N 22°46' E 120°03'918.4
2018-Feb-14 17:30N 22°55' E 119°59'3018.5
2018-Feb-14 15:54N 23°25' E 119°56'718.3
2018-Feb-14 15:29N 23°32' E 119°57'5510.4
2018-Feb-14 10:12N 24°17' E 120°31'0 0.0
2018-Feb-14 09:57N 24°17' E 120°31'0 0.0
2018-Feb-14 09:27N 24°17' E 120°31'0 0.0
2018-Feb-14 08:57N 24°17' E 120°31'0 0.0
2018-Feb-14 08:30N 24°17' E 120°31'0 0.0
2018-Feb-14 07:42N 24°17' E 120°31'0 0.0
2018-Feb-14 07:27N 24°17' E 120°31'0 0.0
2018-Feb-14 07:00N 24°17' E 120°31'0 0.0
2018-Feb-14 06:27N 24°17' E 120°31'0 0.0
2018-Feb-14 05:54N 24°17' E 120°31'0 0.0
2018-Feb-14 05:30N 24°17' E 120°31'0 0.0
2018-Feb-14 05:00N 24°17' E 120°31'1 2.7
2018-Feb-14 04:30N 24°17' E 120°30'3 5.1
2018-Feb-14 04:00N 24°19' E 120°28'815.6
2018-Feb-14 03:30N 24°27' E 120°31'815.6
2018-Feb-14 03:00N 24°34' E 120°34'816.0
2018-Feb-14 02:30N 24°41' E 120°39'816.4
2018-Feb-14 02:00N 24°48' E 120°43'3117.8
2018-Feb-14 00:17N 25°11' E 121°05'619.2
2018-Feb-14 00:00N 25°13' E 121°11'2419.7
2018-Feb-13 22:47N 25°20' E 121°36'619.6
2018-Feb-13 22:30N 25°18' E 121°41'816.4
2018-Feb-13 22:00N 25°10' E 121°45'2 2.9
2018-Feb-13 21:28N 25°09' E 121°45'0 0.0
2018-Feb-13 20:58N 25°09' E 121°45'0 0.0
2018-Feb-13 20:28N 25°09' E 121°45'0 0.0
2018-Feb-13 19:58N 25°09' E 121°45'0 0.0
2018-Feb-13 19:28N 25°09' E 121°45'0 0.0
2018-Feb-13 18:58N 25°09' E 121°45'0 0.0
2018-Feb-13 18:28N 25°09' E 121°45'0 0.0
2018-Feb-13 17:58N 25°09' E 121°45'0 0.0
2018-Feb-13 17:28N 25°09' E 121°45'0 0.0
2018-Feb-13 16:58N 25°09' E 121°45'0 0.0
2018-Feb-13 16:28N 25°09' E 121°45'0 0.0
2018-Feb-13 15:58N 25°09' E 121°45'0 0.0
2018-Feb-13 15:28N 25°09' E 121°45'0 0.0
2018-Feb-13 14:58N 25°09' E 121°45'0 0.0
2018-Feb-13 14:28N 25°09' E 121°45'0 0.0
2018-Feb-13 13:58N 25°09' E 121°45'0 0.0
2018-Feb-13 13:28N 25°09' E 121°45'0 0.0
2018-Feb-13 12:58N 25°09' E 121°45'0 0.0
2018-Feb-13 12:28N 25°09' E 121°45'1 3.2
2018-Feb-13 12:00N 25°10' E 121°45'511.0
2018-Feb-13 11:30N 25°15' E 121°47'816.3
2018-Feb-13 11:00N 25°20' E 121°54'917.8
2018-Feb-13 10:30N 25°25' E 122°03'82517.3
2018-Feb-11 10:43N 33°40' E 134°42'419.5
2018-Feb-11 10:30N 33°43' E 134°45'1019.4
2018-Feb-11 10:00N 33°51' E 134°52'1019.8
2018-Feb-11 09:30N 34°01' E 134°53'919.1
2018-Feb-11 09:01N 34°10' E 134°57'713.6
2018-Feb-11 08:31N 34°16' E 134°58'917.0
2018-Feb-11 08:01N 34°24' E 135°03'917.7
2018-Feb-11 07:31N 34°30' E 135°11'816.7
2018-Feb-11 07:01N 34°37' E 135°16'3 6.7
2018-Feb-11 06:30N 34°40' E 135°14'0 0.0
2018-Feb-11 05:59N 34°40' E 135°14'0 0.0
2018-Feb-11 05:29N 34°40' E 135°14'0 0.0
2018-Feb-11 04:59N 34°40' E 135°14'0 0.0
2018-Feb-11 04:29N 34°40' E 135°14'0 0.0
2018-Feb-11 03:58N 34°40' E 135°14'0 0.0
2018-Feb-11 03:28N 34°40' E 135°14'0 0.0
2018-Feb-11 02:58N 34°40' E 135°14'0 0.0
2018-Feb-11 02:29N 34°40' E 135°14'0 0.0
2018-Feb-11 01:58N 34°40' E 135°14'0 0.0
2018-Feb-11 01:29N 34°40' E 135°14'0 0.0
2018-Feb-11 00:59N 34°40' E 135°14'0 0.0
2018-Feb-11 00:28N 34°40' E 135°14'0 0.0
2018-Feb-10 23:59N 34°40' E 135°14'0 0.0
2018-Feb-10 23:28N 34°40' E 135°14'0 0.0
2018-Feb-10 22:58N 34°40' E 135°14'0 0.0
2018-Feb-10 22:28N 34°40' E 135°14'2 3.7
2018-Feb-10 22:00N 34°39' E 135°16'510.8
2018-Feb-10 21:31N 34°38' E 135°22'1 2.9
2018-Feb-10 21:00N 34°39' E 135°24'0 0.0
2018-Feb-10 20:30N 34°39' E 135°24'0 0.0
2018-Feb-10 20:00N 34°39' E 135°24'0 0.0
2018-Feb-10 19:30N 34°39' E 135°24'0 0.0
2018-Feb-10 19:00N 34°39' E 135°24'0 0.0
2018-Feb-10 18:30N 34°39' E 135°24'0 0.0
2018-Feb-10 18:00N 34°39' E 135°24'0 0.0
2018-Feb-10 17:30N 34°39' E 135°24'0 0.0
2018-Feb-10 17:00N 34°39' E 135°24'0 0.0
2018-Feb-10 16:30N 34°39' E 135°24'0 0.0
2018-Feb-10 16:00N 34°39' E 135°24'0 0.0
2018-Feb-10 15:30N 34°39' E 135°24'0 0.0
2018-Feb-10 14:57N 34°39' E 135°24'0 0.0
2018-Feb-10 14:30N 34°39' E 135°24'0 0.0
2018-Feb-10 14:00N 34°39' E 135°24'0 0.0
2018-Feb-10 13:30N 34°39' E 135°24'0 0.0
2018-Feb-10 13:00N 34°39' E 135°24'0 0.0
2018-Feb-10 12:30N 34°39' E 135°24'0 0.0
2018-Feb-10 12:00N 34°39' E 135°24'0 0.0
2018-Feb-10 11:30N 34°39' E 135°24'0 0.0
2018-Feb-10 11:00N 34°39' E 135°24'0 0.0
2018-Feb-10 10:30N 34°39' E 135°24'0 0.0
2018-Feb-10 10:00N 34°39' E 135°24'0 0.0
2018-Feb-10 09:30N 34°39' E 135°24'1 1.0
2018-Feb-10 09:00N 34°38' E 135°24'5 9.4
2018-Feb-10 08:30N 34°35' E 135°19'815.4
2018-Feb-10 08:01N 34°30' E 135°13'815.9
2018-Feb-10 07:31N 34°24' E 135°06'815.8
2018-Feb-10 07:01N 34°18' E 135°00'815.1
2018-Feb-10 06:30N 34°11' E 135°00'611.6
2018-Feb-10 06:00N 34°05' E 135°00'713.9
2018-Feb-10 05:30N 33°58' E 134°60'714.4
2018-Feb-10 05:00N 33°51' E 134°60'714.6
2018-Feb-10 04:30N 33°45' E 135°05'814.8
2018-Feb-10 03:59N 33°39' E 135°11'5813.6
2018-Feb-09 23:44N 33°45' E 136°21'618.5
2018-Feb-09 23:25N 33°49' E 136°26'918.4
2018-Feb-09 22:56N 33°55' E 136°34'418.3
2018-Feb-09 22:44N 33°57' E 136°37'4812.9
2018-Feb-09 19:01N 34°45' E 136°47'817.0
2018-Feb-09 18:30N 34°53' E 136°45'714.3
2018-Feb-09 18:00N 34°59' E 136°49'3 6.8
2018-Feb-09 17:30N 35°03' E 136°50'0 0.0
2018-Feb-09 09:30N 35°03' E 136°50'2 3.2
2018-Feb-09 09:01N 35°01' E 136°49'3 6.9
2018-Feb-09 08:30N 34°59' E 136°46'611.7
2018-Feb-09 08:00N 34°53' E 136°46'714.6
2018-Feb-09 07:30N 34°46' E 136°48'1616.3
2018-Feb-09 06:30N 34°34' E 137°01'611.4
2018-Feb-09 06:00N 34°32' E 137°07'7114.2
2018-Feb-09 01:00N 34°52' E 138°30'917.9
2018-Feb-09 00:30N 35°00' E 138°34'1 0.1
2018-Feb-08 14:30N 34°60' E 138°35'4 7.3
2018-Feb-08 14:00N 34°56' E 138°36'4 8.7
2018-Feb-08 13:30N 34°52' E 138°37'1211.6
2018-Feb-08 12:30N 34°41' E 138°42'611.6
2018-Feb-08 12:00N 34°36' E 138°45'3110.3
2018-Feb-08 09:00N 34°51' E 139°18'3411.3
2018-Feb-08 06:00N 35°17' E 139°45'1010.4
2018-Feb-08 05:00N 35°26' E 139°41'0 0.1
2018-Feb-08 01:28N 35°26' E 139°41'0 0.0
2018-Feb-08 00:58N 35°26' E 139°41'0 0.0
2018-Feb-08 00:28N 35°26' E 139°41'0 0.0
2018-Feb-07 23:58N 35°26' E 139°41'0 0.0
2018-Feb-07 23:28N 35°26' E 139°41'0 0.0
2018-Feb-07 22:58N 35°26' E 139°41'0 0.0
2018-Feb-07 22:31N 35°26' E 139°41'0 0.7
2018-Feb-07 22:00N 35°27' E 139°41'3 5.6
2018-Feb-07 21:31N 35°26' E 139°44'11 0.9
2018-Feb-07 09:26N 35°37' E 139°46'0 0.0
2018-Feb-07 08:56N 35°37' E 139°46'0 0.0
2018-Feb-07 08:26N 35°37' E 139°46'0 0.0
2018-Feb-07 07:50N 35°37' E 139°46'0 0.0
2018-Feb-07 07:26N 35°37' E 139°46'0 0.0
2018-Feb-07 06:56N 35°37' E 139°46'0 0.0
2018-Feb-07 06:26N 35°37' E 139°46'0 0.0
2018-Feb-07 05:56N 35°37' E 139°46'0 0.0
2018-Feb-07 05:26N 35°37' E 139°46'0 0.0
2018-Feb-07 04:56N 35°37' E 139°46'0 0.0
2018-Feb-07 04:20N 35°37' E 139°46'0 0.0
2018-Feb-07 03:56N 35°37' E 139°46'0 0.0
2018-Feb-07 03:29N 35°37' E 139°46'0 0.0
2018-Feb-07 02:50N 35°37' E 139°46'0 0.0
2018-Feb-07 02:26N 35°37' E 139°46'0 0.7
2018-Feb-07 02:00N 35°37' E 139°46'5 9.8
2018-Feb-07 01:30N 35°33' E 139°50'612.3
2018-Feb-07 01:00N 35°27' E 139°50'1811.9
2018-Feb-06 23:30N 35°10' E 139°47'713.2
2018-Feb-06 23:01N 35°04' E 139°44'917.1
2018-Feb-06 22:30N 34°58' E 139°36'917.4
2018-Feb-06 22:00N 34°54' E 139°27'1117.6
2018-Feb-06 21:22N 34°46' E 139°17'2117.6
2018-Feb-06 20:10N 34°31' E 138°59'317.7
2018-Feb-06 20:00N 34°29' E 138°56'  
Track history (hours):
 
Tides and Currents Weather Stations Pressure Air Temp Water Temp Dewpoint Dewpoint Depression Visibility Wind Speed Wind Dir Waves Ship Positions

Kuo Long

Last reported at 2018-Feb-15 05:24 UTC. Time now 2018-Feb-20 13:42 UTC.
Position N 22°31' E 119°28'.

Length 170 m; draft 8.4 m.

Type: Ship (hazmat cat A). MMSI: 477884200.

Date/timePositionNaut miles runAvg speedWind from/ knotsBaromVisibWave heightAir tempDewpointWater temp
2018-Feb-15 05:24N 22°31' E 119°28'715.8
2018-Feb-15 04:57N 22°32' E 119°35'715.6
2018-Feb-15 04:30N 22°32' E 119°43'815.1
2018-Feb-15 04:01N 22°32' E 119°51'815.6
2018-Feb-15 03:30N 22°33' E 119°60'816.9
2018-Feb-15 03:00N 22°33' E 120°09'816.6
2018-Feb-15 02:30N 22°33' E 120°18'1 2.9
2018-Feb-15 02:00N 22°34' E 120°19'0 0.0
2018-Feb-15 01:30N 22°34' E 120°19'0 0.0
2018-Feb-15 01:00N 22°34' E 120°19'0 0.0
2018-Feb-15 00:30N 22°34' E 120°19'0 0.0
2018-Feb-15 00:00N 22°34' E 120°19'0 0.0
2018-Feb-14 23:30N 22°34' E 120°19'0 0.0
2018-Feb-14 22:57N 22°34' E 120°19'0 0.0
2018-Feb-14 22:30N 22°34' E 120°19'0 0.0
2018-Feb-14 22:00N 22°34' E 120°19'0 0.0
2018-Feb-14 21:30N 22°34' E 120°19'0 0.0
2018-Feb-14 21:00N 22°34' E 120°19'0 0.0
2018-Feb-14 20:30N 22°34' E 120°19'0 0.1
2018-Feb-14 20:01N 22°34' E 120°19'3 5.1
2018-Feb-14 19:30N 22°33' E 120°17'3 6.2
2018-Feb-14 19:00N 22°32' E 120°13'816.3
2018-Feb-14 18:30N 22°39' E 120°08'917.7
2018-Feb-14 18:00N 22°46' E 120°03'918.4
2018-Feb-14 17:30N 22°55' E 119°59'3018.5
2018-Feb-14 15:54N 23°25' E 119°56'718.3
2018-Feb-14 15:29N 23°32' E 119°57'5510.4
2018-Feb-14 10:12N 24°17' E 120°31'0 0.0
2018-Feb-14 09:57N 24°17' E 120°31'0 0.0
2018-Feb-14 09:27N 24°17' E 120°31'0 0.0
2018-Feb-14 08:57N 24°17' E 120°31'0 0.0
2018-Feb-14 08:30N 24°17' E 120°31'0 0.0
2018-Feb-14 07:42N 24°17' E 120°31'0 0.0
2018-Feb-14 07:27N 24°17' E 120°31'0 0.0
2018-Feb-14 07:00N 24°17' E 120°31'0 0.0
2018-Feb-14 06:27N 24°17' E 120°31'0 0.0
2018-Feb-14 05:54N 24°17' E 120°31'0 0.0
2018-Feb-14 05:30N 24°17' E 120°31'0 0.0
2018-Feb-14 05:00N 24°17' E 120°31'1 2.7
2018-Feb-14 04:30N 24°17' E 120°30'3 5.1
2018-Feb-14 04:00N 24°19' E 120°28'815.6
2018-Feb-14 03:30N 24°27' E 120°31'815.6
2018-Feb-14 03:00N 24°34' E 120°34'816.0
2018-Feb-14 02:30N 24°41' E 120°39'816.4
2018-Feb-14 02:00N 24°48' E 120°43'3117.8
2018-Feb-14 00:17N 25°11' E 121°05'619.2
2018-Feb-14 00:00N 25°13' E 121°11'2419.7
2018-Feb-13 22:47N 25°20' E 121°36'619.6
2018-Feb-13 22:30N 25°18' E 121°41'816.4
2018-Feb-13 22:00N 25°10' E 121°45'2 2.9
2018-Feb-13 21:28N 25°09' E 121°45'0 0.0
2018-Feb-13 20:58N 25°09' E 121°45'0 0.0
2018-Feb-13 20:28N 25°09' E 121°45'0 0.0
2018-Feb-13 19:58N 25°09' E 121°45'0 0.0
2018-Feb-13 19:28N 25°09' E 121°45'0 0.0
2018-Feb-13 18:58N 25°09' E 121°45'0 0.0
2018-Feb-13 18:28N 25°09' E 121°45'0 0.0
2018-Feb-13 17:58N 25°09' E 121°45'0 0.0
2018-Feb-13 17:28N 25°09' E 121°45'0 0.0
2018-Feb-13 16:58N 25°09' E 121°45'0 0.0
2018-Feb-13 16:28N 25°09' E 121°45'0 0.0
2018-Feb-13 15:58N 25°09' E 121°45'0 0.0
2018-Feb-13 15:28N 25°09' E 121°45'0 0.0
2018-Feb-13 14:58N 25°09' E 121°45'0 0.0
2018-Feb-13 14:28N 25°09' E 121°45'0 0.0
2018-Feb-13 13:58N 25°09' E 121°45'0 0.0
2018-Feb-13 13:28N 25°09' E 121°45'0 0.0
2018-Feb-13 12:58N 25°09' E 121°45'0 0.0
2018-Feb-13 12:28N 25°09' E 121°45'1 3.2
2018-Feb-13 12:00N 25°10' E 121°45'511.0
2018-Feb-13 11:30N 25°15' E 121°47'816.3
2018-Feb-13 11:00N 25°20' E 121°54'917.8
2018-Feb-13 10:30N 25°25' E 122°03'82517.3
2018-Feb-11 10:43N 33°40' E 134°42'419.5
2018-Feb-11 10:30N 33°43' E 134°45'1019.4
2018-Feb-11 10:00N 33°51' E 134°52'1019.8
2018-Feb-11 09:30N 34°01' E 134°53'919.1
2018-Feb-11 09:01N 34°10' E 134°57'713.6
2018-Feb-11 08:31N 34°16' E 134°58'917.0
2018-Feb-11 08:01N 34°24' E 135°03'917.7
2018-Feb-11 07:31N 34°30' E 135°11'816.7
2018-Feb-11 07:01N 34°37' E 135°16'3 6.7
2018-Feb-11 06:30N 34°40' E 135°14'0 0.0
2018-Feb-11 05:59N 34°40' E 135°14'0 0.0
2018-Feb-11 05:29N 34°40' E 135°14'0 0.0
2018-Feb-11 04:59N 34°40' E 135°14'0 0.0
2018-Feb-11 04:29N 34°40' E 135°14'0 0.0
2018-Feb-11 03:58N 34°40' E 135°14'0 0.0
2018-Feb-11 03:28N 34°40' E 135°14'0 0.0
2018-Feb-11 02:58N 34°40' E 135°14'0 0.0
2018-Feb-11 02:29N 34°40' E 135°14'0 0.0
2018-Feb-11 01:58N 34°40' E 135°14'0 0.0
2018-Feb-11 01:29N 34°40' E 135°14'0 0.0
2018-Feb-11 00:59N 34°40' E 135°14'0 0.0
2018-Feb-11 00:28N 34°40' E 135°14'0 0.0
2018-Feb-10 23:59N 34°40' E 135°14'0 0.0
2018-Feb-10 23:28N 34°40' E 135°14'0 0.0
2018-Feb-10 22:58N 34°40' E 135°14'0 0.0
2018-Feb-10 22:28N 34°40' E 135°14'2 3.7
2018-Feb-10 22:00N 34°39' E 135°16'510.8
2018-Feb-10 21:31N 34°38' E 135°22'1 2.9
2018-Feb-10 21:00N 34°39' E 135°24'0 0.0
2018-Feb-10 20:30N 34°39' E 135°24'0 0.0
2018-Feb-10 20:00N 34°39' E 135°24'0 0.0
2018-Feb-10 19:30N 34°39' E 135°24'0 0.0
2018-Feb-10 19:00N 34°39' E 135°24'0 0.0
2018-Feb-10 18:30N 34°39' E 135°24'0 0.0
2018-Feb-10 18:00N 34°39' E 135°24'0 0.0
2018-Feb-10 17:30N 34°39' E 135°24'0 0.0
2018-Feb-10 17:00N 34°39' E 135°24'0 0.0
2018-Feb-10 16:30N 34°39' E 135°24'0 0.0
2018-Feb-10 16:00N 34°39' E 135°24'0 0.0
2018-Feb-10 15:30N 34°39' E 135°24'0 0.0
2018-Feb-10 14:57N 34°39' E 135°24'0 0.0
2018-Feb-10 14:30N 34°39' E 135°24'0 0.0
2018-Feb-10 14:00N 34°39' E 135°24'0 0.0
2018-Feb-10 13:30N 34°39' E 135°24'0 0.0
2018-Feb-10 13:00N 34°39' E 135°24'0 0.0
2018-Feb-10 12:30N 34°39' E 135°24'0 0.0
2018-Feb-10 12:00N 34°39' E 135°24'0 0.0
2018-Feb-10 11:30N 34°39' E 135°24'0 0.0
2018-Feb-10 11:00N 34°39' E 135°24'0 0.0
2018-Feb-10 10:30N 34°39' E 135°24'0 0.0
2018-Feb-10 10:00N 34°39' E 135°24'0 0.0
2018-Feb-10 09:30N 34°39' E 135°24'1 1.0
2018-Feb-10 09:00N 34°38' E 135°24'5 9.4
2018-Feb-10 08:30N 34°35' E 135°19'815.4
2018-Feb-10 08:01N 34°30' E 135°13'815.9
2018-Feb-10 07:31N 34°24' E 135°06'815.8
2018-Feb-10 07:01N 34°18' E 135°00'815.1
2018-Feb-10 06:30N 34°11' E 135°00'611.6
2018-Feb-10 06:00N 34°05' E 135°00'713.9
2018-Feb-10 05:30N 33°58' E 134°60'714.4
2018-Feb-10 05:00N 33°51' E 134°60'714.6
2018-Feb-10 04:30N 33°45' E 135°05'814.8
2018-Feb-10 03:59N 33°39' E 135°11'5813.6
2018-Feb-09 23:44N 33°45' E 136°21'618.5
2018-Feb-09 23:25N 33°49' E 136°26'918.4
2018-Feb-09 22:56N 33°55' E 136°34'418.3
2018-Feb-09 22:44N 33°57' E 136°37'4812.9
2018-Feb-09 19:01N 34°45' E 136°47'817.0
2018-Feb-09 18:30N 34°53' E 136°45'714.3
2018-Feb-09 18:00N 34°59' E 136°49'3 6.8
2018-Feb-09 17:30N 35°03' E 136°50'0 0.0
2018-Feb-09 09:30N 35°03' E 136°50'2 3.2
2018-Feb-09 09:01N 35°01' E 136°49'3 6.9
2018-Feb-09 08:30N 34°59' E 136°46'611.7
2018-Feb-09 08:00N 34°53' E 136°46'714.6
2018-Feb-09 07:30N 34°46' E 136°48'1616.3
2018-Feb-09 06:30N 34°34' E 137°01'611.4
2018-Feb-09 06:00N 34°32' E 137°07'7114.2
2018-Feb-09 01:00N 34°52' E 138°30'917.9
2018-Feb-09 00:30N 35°00' E 138°34'1 0.1
2018-Feb-08 14:30N 34°60' E 138°35'4 7.3
2018-Feb-08 14:00N 34°56' E 138°36'4 8.7
2018-Feb-08 13:30N 34°52' E 138°37'1211.6
2018-Feb-08 12:30N 34°41' E 138°42'611.6
2018-Feb-08 12:00N 34°36' E 138°45'3110.3
2018-Feb-08 09:00N 34°51' E 139°18'3411.3
2018-Feb-08 06:00N 35°17' E 139°45'1010.4
2018-Feb-08 05:00N 35°26' E 139°41'0 0.1
2018-Feb-08 01:28N 35°26' E 139°41'0 0.0
2018-Feb-08 00:58N 35°26' E 139°41'0 0.0
2018-Feb-08 00:28N 35°26' E 139°41'0 0.0
2018-Feb-07 23:58N 35°26' E 139°41'0 0.0
2018-Feb-07 23:28N 35°26' E 139°41'0 0.0
2018-Feb-07 22:58N 35°26' E 139°41'0 0.0
2018-Feb-07 22:31N 35°26' E 139°41'0 0.7
2018-Feb-07 22:00N 35°27' E 139°41'3 5.6
2018-Feb-07 21:31N 35°26' E 139°44'11 0.9
2018-Feb-07 09:26N 35°37' E 139°46'0 0.0
2018-Feb-07 08:56N 35°37' E 139°46'0 0.0
2018-Feb-07 08:26N 35°37' E 139°46'0 0.0
2018-Feb-07 07:50N 35°37' E 139°46'0 0.0
2018-Feb-07 07:26N 35°37' E 139°46'0 0.0
2018-Feb-07 06:56N 35°37' E 139°46'0 0.0
2018-Feb-07 06:26N 35°37' E 139°46'0 0.0
2018-Feb-07 05:56N 35°37' E 139°46'0 0.0
2018-Feb-07 05:26N 35°37' E 139°46'0 0.0
2018-Feb-07 04:56N 35°37' E 139°46'0 0.0
2018-Feb-07 04:20N 35°37' E 139°46'0 0.0
2018-Feb-07 03:56N 35°37' E 139°46'0 0.0
2018-Feb-07 03:29N 35°37' E 139°46'0 0.0
2018-Feb-07 02:50N 35°37' E 139°46'0 0.0
2018-Feb-07 02:26N 35°37' E 139°46'0 0.7
2018-Feb-07 02:00N 35°37' E 139°46'5 9.8
2018-Feb-07 01:30N 35°33' E 139°50'612.3
2018-Feb-07 01:00N 35°27' E 139°50'1811.9
2018-Feb-06 23:30N 35°10' E 139°47'713.2
2018-Feb-06 23:01N 35°04' E 139°44'917.1
2018-Feb-06 22:30N 34°58' E 139°36'917.4
2018-Feb-06 22:00N 34°54' E 139°27'1117.6
2018-Feb-06 21:22N 34°46' E 139°17'2117.6
2018-Feb-06 20:10N 34°31' E 138°59'317.7
2018-Feb-06 20:00N 34°29' E 138°56'  

Dump ship's entire track history